Tropical Cyclones
[Index]
Main Index Home Page Stock Weather Photos Extreme Storms Discussion Storm News and Storm Chasing Reports Tropical Cyclones / Hurricanes / Typhoons Weather Data and Links Wild Fires / Bushfires Weather Observation Techniques Weather Picture Catalogue Tornado Pictures and Reports Stock Video Footage and DVDs for sale
Season 1967-1968 Tropical Cyclone 196768_02 Track Map
Season 1967-1968 Summaries: [BoM-AU] [JTWC-AU] [JTWC-SIO] [JTWC-SPAC] [JTWC-SH]
<<- Previous TC | BoM 1967-1968 Season | Next TC ->>

click for intensity scale information  Lat/long Grid: Show Hide

 Date Labels: Show Hide

Bureau of Meteorology Tropical Cyclone Data

Name: 196768_02
Number: 424 / 196768_02

06 Dec 1967 05:00 UTC to 10 Dec 1967 20:00 UTC

    date/time    lat    long    hPa   cat  kts
1967-12-06 05   15.5   151.6   1005                     
1967-12-06 08   15.7   151.0   1005                     
1967-12-06 11   15.8   150.4   1005                     
1967-12-06 14   16.0   149.7   1005                     
1967-12-06 17   16.2   149.3   1005                     
1967-12-06 20   16.5   149.2   1005                     
1967-12-06 23   16.9   149.3   1005                     
1967-12-07 02   16.8   149.8   1005                     
1967-12-07 05   16.4   150.3   1003                     
1967-12-07 08   16.4   150.6   1003                     
1967-12-07 11   16.5   150.7   1003                     
1967-12-07 14   17.0   150.8   1003                     
1967-12-07 17   17.5   151.1   1003                     
1967-12-07 20   18.2   151.6   1003                     
1967-12-07 23   18.9   152.2   1003                     
1967-12-08 02   19.7   152.8   1003                     
1967-12-08 05   20.6   153.4   1003                     
1967-12-08 08   21.7   153.9   1003                     
1967-12-08 11   22.9   154.7   1002                     
1967-12-08 14   24.3   155.4   1000                     
1967-12-08 17   25.3   156.4    998                     
1967-12-08 20   25.7   156.9    998                     
1967-12-08 23   26.2   157.4    996                     
1967-12-09 02   26.6   157.8    996                     
1967-12-09 05   27.0   158.2    996                     
1967-12-09 08   27.5   158.6    996                     
1967-12-09 11   27.8   159.2    996                     
1967-12-09 14   28.4   160.0    996                     
1967-12-09 17   28.6   160.8   1000                     
1967-12-09 20   28.7   161.8   1000                     
1967-12-09 23   29.0   163.0   1000                     
1967-12-10 02   29.3   164.0   1002                     
1967-12-10 05   29.4   164.6   1004                     
1967-12-10 08   28.9   164.9   1004                     
1967-12-10 11   28.4   164.5   1006                     
1967-12-10 14   28.1   164.1   1007                     
1967-12-10 17   27.7   163.7   1007                     
1967-12-10 20   27.4   163.3   1007                     
Winds are 10-min average.

Tropical cyclone tracks developed by Michael Bath using data from the Bureau of Meteorology and Google Maps.


[Australian Severe Weather index] [Copyright Notice] [Email Contacts] [Search This Site] [Privacy Policy]
Document: tropical_cyclone_196768_02.htm Updated: 30 May 2013